Time;durP1;ratioP1;P1;durP2;ratioP2;P2;SDS_P1;SDS_P2;PMS_P1;PMS_P2;Temp;Humidity;BMP_temperature;BMP_pressure;BME280_temperature;BME280_humidity;BME280_pressure;Samples;Min_cycle;Max_cycle;Signal;HPM_P1;HPM_P2
2023/05/05 00:01:31;;;;;;;3.73;2.73;;;16.20;1.00;;;;;;5073870;28;20815;-83
2023/05/05 00:04:00;;;;;;;4.87;3.03;;;16.20;1.00;;;;;;5068566;28;20515;-82
2023/05/05 00:06:27;;;;;;;3.63;3.10;;;16.20;1.00;;;;;;5074422;28;20460;-82
2023/05/05 00:08:54;;;;;;;3.83;2.30;;;16.20;1.00;;;;;;5073613;28;20459;-83
2023/05/05 00:11:21;;;;;;;3.33;3.03;;;16.30;1.00;;;;;;5074209;28;20458;-84
2023/05/05 00:13:47;;;;;;;4.40;3.30;;;16.40;1.00;;;;;;5073512;28;20570;-83
2023/05/05 00:16:14;;;;;;;5.97;3.33;;;16.40;1.00;;;;;;5074099;28;20447;-82
2023/05/05 00:18:41;;;;;;;4.00;3.10;;;16.40;25.20;;;;;;5073950;28;20505;-84
2023/05/05 00:21:09;;;;;;;5.60;3.20;;;16.50;1.00;;;;;;5073894;28;20497;-82
2023/05/05 00:23:36;;;;;;;5.23;3.20;;;16.50;1.00;;;;;;5074026;28;20469;-82
2023/05/05 00:26:03;;;;;;;5.37;3.10;;;16.50;1.00;;;;;;5073289;28;20450;-82
2023/05/05 00:28:30;;;;;;;4.63;3.00;;;16.50;1.00;;;;;;5077816;28;20563;-85
2023/05/05 00:30:57;;;;;;;3.47;2.67;;;16.50;1.00;;;;;;5077247;28;20483;-83
2023/05/05 00:33:24;;;;;;;4.67;3.00;;;16.40;1.00;;;;;;5077842;28;20452;-83
2023/05/05 00:35:51;;;;;;;6.00;2.80;;;16.50;1.00;;;;;;5077889;28;20472;-83
2023/05/05 00:38:19;;;;;;;5.43;3.50;;;16.50;1.00;;;;;;5078278;28;20459;-82
2023/05/05 00:40:46;;;;;;;4.27;3.10;;;16.40;1.00;;;;;;5077940;28;20462;-83
2023/05/05 00:43:13;;;;;;;4.37;3.27;;;16.50;1.00;;;;;;5077949;28;20452;-81
2023/05/05 00:45:41;;;;;;;4.73;3.00;;;16.50;1.00;;;;;;5077738;28;20454;-83
2023/05/05 00:48:08;;;;;;;3.70;2.90;;;16.60;28.10;;;;;;5078562;28;20544;-83
2023/05/05 00:50:37;;;;;;;4.90;3.00;;;16.50;99.90;;;;;;5077820;28;20456;-83
2023/05/05 00:53:05;;;;;;;4.00;2.90;;;16.50;99.90;;;;;;5078303;28;20453;-82
2023/05/05 00:55:35;;;;;;;3.60;3.20;;;16.50;1.00;;;;;;5079711;28;20477;-82
2023/05/05 00:58:03;;;;;;;6.13;3.50;;;16.60;1.00;;;;;;5099230;28;20525;-81
2023/05/05 01:00:30;;;;;;;5.33;2.93;;;16.50;70.00;;;;;;5086097;28;20454;-83
2023/05/05 01:02:57;;;;;;;3.80;2.93;;;16.60;1.00;;;;;;5077734;28;20495;-85
2023/05/05 01:05:25;;;;;;;4.43;2.87;;;16.60;43.90;;;;;;5077781;28;21057;-83
2023/05/05 01:08:15;;;;;;;4.93;3.60;;;16.60;99.90;;;;;;5058178;28;20454;-82
2023/05/05 01:10:46;;;;;;;3.40;2.63;;;16.60;99.90;;;;;;5062113;28;20483;-82
2023/05/05 01:13:22;;;;;;;3.60;2.73;;;16.60;99.90;;;;;;5079117;28;21087;-82
2023/05/05 01:15:54;;;;;;;5.23;2.70;;;16.60;99.90;;;;;;5078078;28;20528;-81
2023/05/05 01:18:31;;;;;;;5.40;3.43;;;16.60;99.90;;;;;;5076896;28;20442;-82
2023/05/05 01:21:02;;;;;;;4.07;3.17;;;16.60;99.90;;;;;;5076125;28;20796;-84
2023/05/05 01:23:47;;;;;;;4.63;3.50;;;16.60;99.90;;;;;;5076252;28;20420;-82
2023/05/05 01:26:43;;;;;;;4.13;2.67;;;16.50;99.90;;;;;;5076016;28;20468;-83
2023/05/05 01:29:29;;;;;;;4.17;2.87;;;16.50;1.00;;;;;;5077322;28;20449;-82
2023/05/05 01:32:02;;;;;;;3.83;2.90;;;16.40;99.90;;;;;;5076326;28;20534;-82
2023/05/05 01:34:35;;;;;;;5.63;3.10;;;16.40;99.90;;;;;;5076183;28;20478;-82
2023/05/05 01:37:10;;;;;;;4.30;3.03;;;16.40;1.00;;;;;;5076160;28;20431;-80
2023/05/05 01:39:38;;;;;;;5.50;3.10;;;16.40;54.40;;;;;;5076549;28;20459;-83
2023/05/05 01:42:12;;;;;;;5.40;3.17;;;16.50;99.90;;;;;;5075175;28;20493;-82
2023/05/05 01:44:42;;;;;;;4.30;3.07;;;16.50;99.90;;;;;;5075898;28;20531;-82
2023/05/05 01:47:13;;;;;;;4.00;3.20;;;16.50;99.90;;;;;;5087468;28;20456;-83
2023/05/05 01:49:40;;;;;;;3.90;3.17;;;16.50;99.90;;;;;;5092950;28;20828;-82
2023/05/05 01:52:10;;;;;;;3.93;3.27;;;16.50;99.90;;;;;;5076733;28;20452;-83
2023/05/05 01:54:38;;;;;;;5.23;4.00;;;16.40;99.90;;;;;;5075771;28;21013;-81
2023/05/05 01:57:08;;;;;;;3.80;3.10;;;16.40;8.70;;;;;;5076430;28;20444;-83
2023/05/05 01:59:36;;;;;;;4.33;3.23;;;16.40;99.90;;;;;;5056064;28;20449;-81
2023/05/05 02:02:03;;;;;;;4.90;3.50;;;16.40;99.90;;;;;;5056744;28;20484;-81
2023/05/05 02:04:33;;;;;;;4.53;3.90;;;16.40;99.90;;;;;;5055141;28;20475;-81
2023/05/05 02:07:02;;;;;;;5.80;3.53;;;16.40;99.90;;;;;;5056188;28;20454;-82
2023/05/05 02:09:30;;;;;;;6.93;3.80;;;16.50;99.90;;;;;;5076245;28;20954;-82
2023/05/05 02:11:58;;;;;;;3.70;3.40;;;16.50;99.90;;;;;;5076134;28;20469;-81
2023/05/05 02:14:28;;;;;;;4.57;4.07;;;16.50;99.90;;;;;;5076570;28;20483;-80
2023/05/05 02:16:57;;;;;;;7.83;4.00;;;16.50;1.00;;;;;;5075932;28;20452;-81
2023/05/05 02:19:29;;;;;;;4.43;3.50;;;16.50;99.90;;;;;;5089533;28;20548;-83
2023/05/05 02:21:57;;;;;;;4.70;3.27;;;16.50;99.90;;;;;;5090259;28;20547;-82
2023/05/05 02:24:25;;;;;;;5.93;3.70;;;16.50;99.90;;;;;;5090244;28;20542;-81
2023/05/05 02:26:54;;;;;;;3.97;3.23;;;16.40;99.90;;;;;;5079592;28;20452;-83
2023/05/05 02:29:28;;;;;;;4.97;3.57;;;16.30;1.00;;;;;;5078185;28;20509;-83
2023/05/05 02:32:02;;;;;;;3.40;3.00;;;16.20;99.90;;;;;;5078453;28;20443;-83
2023/05/05 02:34:34;;;;;;;6.57;4.43;;;16.20;1.00;;;;;;5077427;28;20843;-82
2023/05/05 02:37:06;;;;;;;5.13;3.87;;;16.20;1.00;;;;;;5078383;28;20529;-82
2023/05/05 02:39:38;;;;;;;5.53;3.77;;;16.20;99.90;;;;;;5079574;28;20450;-82
2023/05/05 02:42:07;;;;;;;4.77;3.67;;;16.20;99.90;;;;;;5078156;28;20475;-83
2023/05/05 02:44:36;;;;;;;4.37;3.57;;;16.20;1.00;;;;;;5073999;28;20472;-83
2023/05/05 02:47:03;;;;;;;5.30;3.80;;;16.20;99.90;;;;;;5077882;28;20465;-83
2023/05/05 02:49:30;;;;;;;5.93;4.63;;;16.20;48.50;;;;;;5077290;28;20461;-82
2023/05/05 02:51:57;;;;;;;7.10;4.33;;;16.20;99.90;;;;;;5077960;28;20455;-82
2023/05/05 02:54:27;;;;;;;5.17;4.37;;;16.10;1.00;;;;;;5076239;28;20533;-83
2023/05/05 02:56:57;;;;;;;4.97;4.07;;;16.00;99.90;;;;;;5078442;28;20954;-81
2023/05/05 02:59:33;;;;;;;5.27;4.57;;;15.80;1.00;;;;;;5097718;28;20450;-81
2023/05/05 03:02:09;;;;;;;5.43;4.37;;;15.70;99.90;;;;;;5082319;28;20463;-81
2023/05/05 03:04:40;;;;;;;5.80;5.20;;;15.70;99.90;;;;;;5076656;28;20470;-80
2023/05/05 03:07:13;;;;;;;5.10;4.50;;;15.70;37.80;;;;;;5077041;28;20534;-81
2023/05/05 03:09:45;;;;;;;6.17;5.30;;;15.70;59.60;;;;;;5078017;28;20429;-81
2023/05/05 03:12:18;;;;;;;6.90;5.27;;;15.70;99.90;;;;;;5077047;28;20446;-81
2023/05/05 03:14:45;;;;;;;5.43;4.70;;;15.70;1.00;;;;;;5077383;28;20982;-81
2023/05/05 03:17:13;;;;;;;7.20;5.43;;;15.80;1.00;;;;;;5075856;28;20471;-83
2023/05/05 03:19:42;;;;;;;7.70;5.23;;;15.90;99.90;;;;;;5075984;28;20454;-82
2023/05/05 03:22:09;;;;;;;6.30;5.33;;;16.00;1.00;;;;;;5075357;28;20490;-82
2023/05/05 03:24:36;;;;;;;8.60;5.87;;;16.00;1.00;;;;;;5075743;28;20502;-81
2023/05/05 03:27:04;;;;;;;9.47;5.30;;;16.00;14.70;;;;;;5076363;28;20457;-83
2023/05/05 03:29:31;;;;;;;8.30;7.33;;;16.10;1.00;;;;;;5075972;28;20459;-82
2023/05/05 03:31:59;;;;;;;7.63;5.50;;;16.10;42.00;;;;;;5080545;28;20527;-84
2023/05/05 03:34:26;;;;;;;11.03;6.73;;;16.20;99.90;;;;;;5091434;28;20475;-82
2023/05/05 03:36:53;;;;;;;7.00;5.97;;;16.20;1.00;;;;;;5075888;28;20454;-82
2023/05/05 03:39:20;;;;;;;7.33;6.27;;;16.20;99.90;;;;;;5075772;28;20461;-82
2023/05/05 03:41:46;;;;;;;9.07;8.20;;;16.20;99.90;;;;;;5076214;28;20458;-81
2023/05/05 03:44:15;;;;;;;7.43;6.37;;;16.20;42.10;;;;;;5075129;28;20998;-81
2023/05/05 03:46:41;;;;;;;9.67;6.40;;;16.10;99.90;;;;;;5075765;28;20450;-82
2023/05/05 03:49:08;;;;;;;7.63;6.87;;;16.20;1.00;;;;;;5075694;28;20450;-82
2023/05/05 03:51:35;;;;;;;7.10;5.70;;;16.10;1.00;;;;;;5074551;28;20979;-81
2023/05/05 03:54:02;;;;;;;7.80;6.50;;;16.10;22.60;;;;;;5074974;28;20464;-81
2023/05/05 03:56:29;;;;;;;8.00;6.80;;;16.10;1.00;;;;;;5074826;28;20454;-82
2023/05/05 03:58:56;;;;;;;9.00;6.23;;;16.00;99.90;;;;;;5074816;28;20520;-82
2023/05/05 04:01:24;;;;;;;8.50;7.00;;;15.90;99.90;;;;;;5073990;28;20445;-81
2023/05/05 04:03:51;;;;;;;8.23;7.40;;;15.80;1.00;;;;;;5074209;28;20850;-81
2023/05/05 04:06:18;;;;;;;10.13;7.47;;;15.80;1.00;;;;;;5074106;28;20455;-82
2023/05/05 04:08:45;;;;;;;10.50;7.40;;;15.70;32.80;;;;;;5075959;28;20440;-81
2023/05/05 04:11:12;;;;;;;8.03;7.20;;;15.70;38.40;;;;;;5074354;28;20460;-82
2023/05/05 04:13:40;;;;;;;8.27;7.47;;;15.70;43.20;;;;;;5073465;28;20537;-82
2023/05/05 04:16:07;;;;;;;7.30;6.33;;;15.80;36.20;;;;;;5074203;28;20459;-83
2023/05/05 04:18:36;;;;;;;10.00;7.60;;;15.80;43.00;;;;;;5074286;28;20890;-81
2023/05/05 04:21:03;;;;;;;10.40;8.60;;;15.80;99.90;;;;;;5077390;28;20452;-82
2023/05/05 04:23:29;;;;;;;12.60;9.20;;;15.70;30.30;;;;;;5077915;28;20488;-81
2023/05/05 04:25:56;;;;;;;9.93;7.40;;;15.70;19.80;;;;;;5079915;28;20462;-81
2023/05/05 04:28:23;;;;;;;9.27;8.30;;;15.60;99.90;;;;;;5078805;28;20554;-82
2023/05/05 04:30:50;;;;;;;9.80;8.80;;;15.60;99.90;;;;;;5078352;28;20463;-79
2023/05/05 04:33:17;;;;;;;8.90;8.00;;;15.50;99.90;;;;;;5079133;28;20852;-79
2023/05/05 04:35:45;;;;;;;10.40;8.40;;;15.50;99.90;;;;;;5083626;28;20451;-81
2023/05/05 04:38:11;;;;;;;10.67;9.07;;;15.40;99.90;;;;;;5078483;28;20468;-80
2023/05/05 04:40:39;;;;;;;10.97;8.70;;;15.40;99.90;;;;;;5077144;28;20825;-79
2023/05/05 04:43:06;;;;;;;12.50;8.73;;;15.30;99.90;;;;;;5075959;28;20533;-80
2023/05/05 04:45:33;;;;;;;10.70;8.90;;;15.40;99.90;;;;;;5078288;28;20729;-78
2023/05/05 04:48:00;;;;;;;9.30;8.40;;;15.30;99.90;;;;;;5076367;28;20459;-79
2023/05/05 04:50:27;;;;;;;13.03;9.20;;;15.30;99.90;;;;;;5075023;28;21001;-80
2023/05/05 04:52:55;;;;;;;10.57;9.40;;;15.30;99.90;;;;;;5074581;28;20457;-80
2023/05/05 04:55:22;;;;;;;14.90;10.33;;;15.20;99.90;;;;;;5069980;28;20541;-80
2023/05/05 04:57:49;;;;;;;11.90;9.63;;;15.30;99.90;;;;;;5075728;28;20464;-80
2023/05/05 05:00:16;;;;;;;10.90;9.43;;;15.30;99.90;;;;;;5081886;28;20454;-80
2023/05/05 05:02:43;;;;;;;9.70;8.83;;;15.30;99.90;;;;;;5082030;28;20493;-80
2023/05/05 05:05:10;;;;;;;12.57;9.23;;;15.30;99.90;;;;;;5083463;28;20508;-80
2023/05/05 05:07:37;;;;;;;10.33;9.30;;;15.40;99.90;;;;;;5062514;28;20451;-79
2023/05/05 05:10:06;;;;;;;10.47;8.97;;;15.40;99.90;;;;;;5042291;28;20453;-79
2023/05/05 05:12:33;;;;;;;13.40;10.40;;;15.40;99.90;;;;;;5087965;28;20495;-82
2023/05/05 05:14:59;;;;;;;12.37;10.10;;;15.50;99.90;;;;;;5083656;28;20564;-79
2023/05/05 05:17:28;;;;;;;10.33;9.20;;;15.60;99.90;;;;;;5081588;28;20473;-79
2023/05/05 05:19:58;;;;;;;15.80;10.47;;;15.70;99.90;;;;;;5075613;28;20478;-80
2023/05/05 05:22:24;;;;;;;11.17;9.67;;;15.80;99.90;;;;;;5075493;28;20467;-79
2023/05/05 05:24:52;;;;;;;10.67;9.57;;;15.80;99.90;;;;;;5086780;28;20477;-79
2023/05/05 05:27:20;;;;;;;10.80;9.70;;;15.90;99.90;;;;;;5081523;28;20502;-79
2023/05/05 05:29:47;;;;;;;13.83;10.97;;;15.90;35.00;;;;;;5084175;28;20872;-78
2023/05/05 05:32:14;;;;;;;15.33;12.87;;;16.00;1.00;;;;;;5081051;28;20446;-80
2023/05/05 05:34:41;;;;;;;13.00;11.63;;;16.10;99.90;;;;;;5079771;28;20474;-79
2023/05/05 05:37:07;;;;;;;18.50;11.67;;;16.20;1.00;;;;;;5078476;28;20953;-80
2023/05/05 05:39:35;;;;;;;12.00;10.30;;;16.30;99.90;;;;;;5075760;28;20456;-79
2023/05/05 05:42:03;;;;;;;12.67;11.40;;;16.30;99.90;;;;;;5077155;28;20496;-79
2023/05/05 05:44:31;;;;;;;17.33;10.70;;;16.40;99.90;;;;;;5081896;28;20492;-79
2023/05/05 05:46:58;;;;;;;13.07;11.67;;;16.40;99.90;;;;;;5084327;28;20850;-80
2023/05/05 05:49:25;;;;;;;13.70;11.63;;;16.50;99.90;;;;;;5083169;28;20454;-81
2023/05/05 05:51:51;;;;;;;14.13;11.90;;;16.50;1.00;;;;;;5077240;28;20461;-82
2023/05/05 05:54:18;;;;;;;15.87;13.30;;;16.50;99.90;;;;;;5075458;28;20918;-82
2023/05/05 05:56:45;;;;;;;15.90;13.67;;;16.50;1.00;;;;;;5077500;28;20459;-82
2023/05/05 05:59:12;;;;;;;16.07;12.83;;;16.50;99.90;;;;;;5075643;28;20453;-83
2023/05/05 06:01:40;;;;;;;21.70;13.93;;;16.50;84.90;;;;;;5077729;28;20543;-82
2023/05/05 06:04:07;;;;;;;15.70;11.37;;;16.50;99.90;;;;;;5069610;28;20488;-83
2023/05/05 06:06:34;;;;;;;13.60;12.20;;;16.60;99.90;;;;;;5075609;28;20448;-81
2023/05/05 06:09:00;;;;;;;16.83;13.07;;;16.70;99.90;;;;;;5076083;28;20466;-82
2023/05/05 06:11:27;;;;;;;16.23;13.87;;;16.80;1.00;;;;;;5076204;28;20523;-82
2023/05/05 06:13:54;;;;;;;15.83;13.73;;;16.80;99.90;;;;;;5075909;28;20474;-81
2023/05/05 06:16:21;;;;;;;16.03;14.27;;;16.90;99.90;;;;;;5076387;28;20456;-83
2023/05/05 06:18:49;;;;;;;18.70;14.47;;;17.00;99.90;;;;;;5075351;28;20454;-82
2023/05/05 06:21:16;;;;;;;20.10;14.37;;;17.00;99.90;;;;;;5076082;28;20454;-81
2023/05/05 06:23:43;;;;;;;18.70;14.83;;;17.10;1.00;;;;;;5076217;28;20493;-81
2023/05/05 06:26:09;;;;;;;16.83;14.20;;;17.10;99.90;;;;;;5076932;28;20476;-82
2023/05/05 06:28:36;;;;;;;14.13;12.63;;;17.20;1.00;;;;;;5077005;28;20876;-81
2023/05/05 06:31:03;;;;;;;16.10;12.33;;;17.30;99.90;;;;;;5076370;28;20460;-80
2023/05/05 06:33:30;;;;;;;14.20;12.70;;;17.40;99.90;;;;;;5075498;28;20998;-79
2023/05/05 06:35:58;;;;;;;16.33;12.20;;;17.40;1.00;;;;;;5075796;28;20458;-81
2023/05/05 06:38:25;;;;;;;13.83;12.43;;;17.40;99.90;;;;;;5075738;28;20453;-80
2023/05/05 06:40:52;;;;;;;16.40;14.70;;;17.50;1.00;;;;;;5075565;28;20484;-81
2023/05/05 06:43:19;;;;;;;14.57;12.20;;;17.60;1.00;;;;;;5075422;28;20490;-81
2023/05/05 06:45:46;;;;;;;11.30;10.30;;;17.60;34.40;;;;;;5075464;28;20826;-80
2023/05/05 06:48:12;;;;;;;10.63;9.57;;;17.70;99.90;;;;;;5075046;28;20443;-80
2023/05/05 06:50:39;;;;;;;12.07;9.40;;;17.80;99.90;;;;;;5075263;28;20458;-83
2023/05/05 06:53:07;;;;;;;10.70;9.10;;;18.00;99.90;;;;;;5071479;28;20452;-82
2023/05/05 06:55:34;;;;;;;9.20;8.03;;;18.20;77.60;;;;;;5075217;28;20853;-81
2023/05/05 06:58:01;;;;;;;9.90;8.07;;;18.20;1.00;;;;;;5073571;28;20458;-77
2023/05/05 07:00:28;;;;;;;10.20;8.33;;;18.30;1.00;;;;;;5073651;28;20450;-79
2023/05/05 07:02:55;;;;;;;10.13;7.80;;;18.40;99.90;;;;;;5072896;28;20497;-81
2023/05/05 07:05:22;;;;;;;10.47;8.40;;;18.30;99.90;;;;;;5072098;28;20497;-79
2023/05/05 07:07:52;;;;;;;9.93;7.60;;;18.40;99.90;;;;;;5072630;28;20459;-78
2023/05/05 07:10:21;;;;;;;10.47;7.00;;;18.60;99.90;;;;;;5072856;28;20464;-80
2023/05/05 07:12:49;;;;;;;9.93;8.37;;;18.70;99.90;;;;;;5072981;28;20457;-79
2023/05/05 07:15:16;;;;;;;11.30;7.93;;;18.70;99.90;;;;;;5071420;28;20487;-80
2023/05/05 07:17:43;;;;;;;9.33;7.50;;;18.90;99.90;;;;;;5072505;28;20455;-78
2023/05/05 07:20:10;;;;;;;9.53;7.43;;;19.10;99.90;;;;;;5072183;28;20954;-81
2023/05/05 07:22:37;;;;;;;8.67;6.80;;;19.30;70.60;;;;;;5072135;28;20474;-77
2023/05/05 07:25:05;;;;;;;8.60;6.93;;;19.40;29.40;;;;;;5071972;28;20487;-79
2023/05/05 07:27:34;;;;;;;13.40;7.90;;;19.60;13.20;;;;;;5072403;28;20554;-79
2023/05/05 07:30:01;;;;;;;8.90;7.50;;;19.60;1.00;;;;;;5071813;28;20461;-79
2023/05/05 07:32:27;;;;;;;8.47;7.67;;;19.80;1.00;;;;;;5072472;28;20468;-77
2023/05/05 07:34:54;;;;;;;12.47;6.87;;;20.00;1.00;;;;;;5072501;28;20978;-80
2023/05/05 07:37:21;;;;;;;10.00;7.50;;;20.20;1.00;;;;;;5073131;28;20462;-80
2023/05/05 07:39:48;;;;;;;7.90;6.50;;;20.10;1.00;;;;;;5071409;28;20514;-80
2023/05/05 07:42:15;;;;;;;8.43;6.67;;;20.30;1.00;;;;;;5072387;28;20458;-78
2023/05/05 07:44:43;;;;;;;7.70;6.93;;;20.40;1.00;;;;;;5071329;28;20492;-78
2023/05/05 07:47:10;;;;;;;6.80;6.10;;;20.40;1.00;;;;;;5072529;28;20451;-79
2023/05/05 07:49:37;;;;;;;12.20;5.73;;;20.40;1.00;;;;;;5072416;28;20458;-81
2023/05/05 07:52:03;;;;;;;7.40;6.60;;;20.40;1.00;;;;;;5071982;28;20455;-78
2023/05/05 07:54:30;;;;;;;8.33;6.47;;;20.50;1.00;;;;;;5072312;28;20467;-80
2023/05/05 07:56:57;;;;;;;6.80;5.40;;;20.50;1.00;;;;;;5072368;28;20455;-78
2023/05/05 07:59:24;;;;;;;10.97;5.83;;;20.60;1.00;;;;;;5072041;28;20471;-79
2023/05/05 08:01:52;;;;;;;9.00;6.20;;;20.70;1.00;;;;;;5072875;28;20447;-78
2023/05/05 08:04:19;;;;;;;10.20;5.37;;;21.00;1.00;;;;;;5071488;28;20493;-77
2023/05/05 08:06:46;;;;;;;6.63;5.93;;;20.90;1.00;;;;;;5072291;28;21033;-80
2023/05/05 08:09:13;;;;;;;7.30;4.83;;;21.10;1.00;;;;;;5072480;28;20958;-78
2023/05/05 08:11:39;;;;;;;8.53;4.80;;;21.30;1.00;;;;;;5071730;28;20469;-77
2023/05/05 08:14:07;;;;;;;7.17;5.27;;;21.30;1.00;;;;;;5071690;28;20478;-79
2023/05/05 08:16:34;;;;;;;8.33;5.40;;;21.60;1.00;;;;;;5072399;28;20457;-80
2023/05/05 08:19:02;;;;;;;5.03;4.20;;;21.50;1.00;;;;;;5072643;28;20447;-77
2023/05/05 08:21:29;;;;;;;7.77;4.93;;;21.80;1.00;;;;;;5071652;28;20542;-82
2023/05/05 08:23:56;;;;;;;9.27;6.00;;;22.20;1.00;;;;;;5071783;28;20491;-80
2023/05/05 08:26:22;;;;;;;6.47;5.77;;;22.60;1.00;;;;;;5072445;28;20490;-79
2023/05/05 08:28:53;;;;;;;8.53;4.63;;;23.00;1.00;;;;;;5072356;28;20450;-76
2023/05/05 08:31:20;;;;;;;7.60;4.40;;;23.50;99.90;;;;;;5072001;28;20451;-82
2023/05/05 08:33:47;;;;;;;6.37;4.57;;;23.80;99.90;;;;;;5071695;28;20521;-78
2023/05/05 08:36:15;;;;;;;5.27;3.90;;;24.50;99.90;;;;;;5071711;28;20487;-78
2023/05/05 08:38:42;;;;;;;12.30;5.60;;;24.70;99.90;;;;;;5071462;28;20538;-79
2023/05/05 08:41:12;;;;;;;5.13;4.63;;;24.80;99.90;;;;;;5070501;28;20455;-79
2023/05/05 08:43:40;;;;;;;7.13;4.50;;;25.00;99.90;;;;;;5070601;28;20486;-79
2023/05/05 08:46:10;;;;;;;5.50;3.90;;;26.20;99.90;;;;;;5071418;28;20512;-82
2023/05/05 08:48:40;;;;;;;9.20;4.57;;;26.90;99.90;;;;;;5071741;28;20478;-80
2023/05/05 08:51:08;;;;;;;7.47;4.70;;;27.40;99.90;;;;;;5072308;28;20459;-78
2023/05/05 08:53:46;;;;;;;5.70;4.10;;;27.80;99.90;;;;;;5075949;28;20454;-79
2023/05/05 08:56:14;;;;;;;6.43;4.20;;;27.80;99.90;;;;;;5076512;28;20451;-78
2023/05/05 08:58:41;;;;;;;5.50;3.67;;;27.60;99.90;;;;;;5075957;28;20459;-78
2023/05/05 09:01:10;;;;;;;5.37;4.23;;;28.50;99.90;;;;;;5078171;28;20450;-79
2023/05/05 09:03:37;;;;;;;7.03;5.37;;;29.20;99.90;;;;;;5063687;28;20499;-78
2023/05/05 09:06:04;;;;;;;7.27;6.13;;;28.80;99.90;;;;;;5077512;28;20973;-79
2023/05/05 09:08:32;;;;;;;6.87;4.17;;;28.50;99.90;;;;;;5077626;28;20833;-78
2023/05/05 09:11:01;;;;;;;5.83;4.10;;;28.70;99.90;;;;;;5078191;28;20457;-78
2023/05/05 09:13:29;;;;;;;6.17;4.30;;;29.20;99.90;;;;;;5077075;28;20554;-79
2023/05/05 09:15:56;;;;;;;5.47;4.97;;;30.00;99.90;;;;;;5077914;28;20439;-82
2023/05/05 09:18:23;;;;;;;7.10;4.70;;;30.90;99.90;;;;;;5077290;28;20832;-82
2023/05/05 09:20:50;;;;;;;3.60;2.90;;;31.30;99.90;;;;;;5076658;28;20541;-79
2023/05/05 09:23:18;;;;;;;5.03;4.10;;;32.70;99.90;;;;;;5076915;28;20443;-80
2023/05/05 09:25:46;;;;;;;6.30;4.13;;;33.50;99.90;;;;;;5077446;28;20986;-80
2023/05/05 09:28:16;;;;;;;5.83;2.97;;;33.00;99.90;;;;;;5076328;28;20447;-78
2023/05/05 09:30:44;;;;;;;7.60;3.30;;;32.10;99.90;;;;;;5076882;28;20447;-78
2023/05/05 09:33:11;;;;;;;6.17;4.40;;;32.40;99.90;;;;;;5076327;28;20457;-81
2023/05/05 09:35:52;;;;;;;4.83;3.93;;;33.30;99.90;;;;;;5076424;28;20467;-79
2023/05/05 09:38:19;;;;;;;5.17;3.93;;;33.50;99.90;;;;;;5076067;28;20485;-77
2023/05/05 09:40:47;;;;;;;4.60;3.77;;;33.00;99.90;;;;;;5076691;28;20449;-78
2023/05/05 09:43:16;;;;;;;4.47;3.40;;;32.70;99.90;;;;;;5075590;28;20461;-81
2023/05/05 09:45:43;;;;;;;5.90;4.10;;;33.50;99.90;;;;;;5075839;28;20573;-80
2023/05/05 09:48:25;;;;;;;7.00;4.40;;;32.70;99.90;;;;;;5076244;28;20951;-79
2023/05/05 09:50:52;;;;;;;5.83;4.60;;;33.50;99.90;;;;;;5076729;28;20478;-80
2023/05/05 09:53:19;;;;;;;4.77;4.00;;;32.70;99.90;;;;;;5075849;28;20447;-77
2023/05/05 09:55:55;;;;;;;6.30;4.00;;;31.60;99.90;;;;;;5075503;28;20453;-80
2023/05/05 09:58:24;;;;;;;5.00;3.83;;;31.60;99.90;;;;;;5074678;28;20461;-80
2023/05/05 10:00:52;;;;;;;5.77;4.70;;;32.80;99.90;;;;;;5075515;28;20451;-78
2023/05/05 10:03:19;;;;;;;5.20;3.73;;;32.90;99.90;;;;;;5074229;28;20447;-79
2023/05/05 10:05:49;;;;;;;4.33;3.50;;;32.50;99.90;;;;;;5075601;28;20486;-80
2023/05/05 10:08:17;;;;;;;5.17;3.60;;;32.20;99.90;;;;;;5075259;28;20487;-77
2023/05/05 10:10:49;;;;;;;5.60;4.30;;;32.00;99.90;;;;;;5075281;28;20449;-78
2023/05/05 10:13:19;;;;;;;6.57;4.50;;;31.50;99.90;;;;;;5074737;28;20443;-79
2023/05/05 10:15:49;;;;;;;8.00;4.93;;;30.40;99.90;;;;;;5075005;28;20450;-78
2023/05/05 10:18:20;;;;;;;5.53;4.13;;;29.50;99.90;;;;;;5074828;28;20443;-79
2023/05/05 10:20:51;;;;;;;6.10;4.70;;;28.80;99.90;;;;;;5074860;28;20443;-80
2023/05/05 10:23:20;;;;;;;4.90;4.40;;;28.80;99.90;;;;;;5091245;22;20548;-85
2023/05/05 10:25:53;;;;;;;6.27;4.87;;;29.00;99.90;;;;;;5079799;28;20495;-85
2023/05/05 10:28:26;;;;;;;5.87;4.50;;;28.60;99.90;;;;;;5079686;28;20451;-86
2023/05/05 10:30:57;;;;;;;4.30;3.43;;;28.20;99.90;;;;;;5081409;28;20917;-83
2023/05/05 10:33:33;;;;;;;5.57;4.40;;;28.40;99.90;;;;;;5080215;28;20475;-85
2023/05/05 10:36:02;;;;;;;8.10;4.80;;;29.10;99.90;;;;;;5067027;28;20457;-86
2023/05/05 10:38:32;;;;;;;5.80;4.60;;;29.80;99.90;;;;;;5059914;28;20537;-83
2023/05/05 10:41:00;;;;;;;6.17;5.00;;;32.00;99.90;;;;;;5061521;28;20547;-84
2023/05/05 10:43:29;;;;;;;5.40;4.10;;;31.50;99.90;;;;;;5061032;28;20895;-83
2023/05/05 10:45:57;;;;;;;7.40;4.17;;;30.60;99.90;;;;;;5072862;28;20575;-85
2023/05/05 10:48:33;;;;;;;8.20;4.70;;;31.00;99.90;;;;;;5068217;28;20464;-84
2023/05/05 10:51:14;;;;;;;6.73;4.53;;;30.60;99.90;;;;;;5074847;28;20454;-86
2023/05/05 10:53:51;;;;;;;4.97;4.33;;;30.30;99.90;;;;;;5069342;28;20555;-87
2023/05/05 10:56:25;;;;;;;6.30;4.07;;;30.20;99.90;;;;;;5063144;28;20439;-87
2023/05/05 10:58:52;;;;;;;4.80;3.27;;;31.50;99.90;;;;;;5074044;28;20439;-80
2023/05/05 11:01:31;;;;;;;5.40;4.17;;;32.40;99.90;;;;;;5073111;28;20484;-85
2023/05/05 11:04:16;;;;;;;3.80;3.40;;;31.80;99.90;;;;;;5058039;28;20975;-87
2023/05/05 11:07:19;;;;;;;3.03;2.70;;;32.30;99.90;;;;;;5065819;28;20501;-86
2023/05/05 11:10:00;;;;;;;6.17;3.50;;;33.10;99.90;;;;;;5037176;28;20444;-84
2023/05/05 11:12:27;;;;;;;3.13;2.80;;;34.40;99.90;;;;;;5065529;28;20532;-82
2023/05/05 11:15:37;;;;;;;4.27;3.00;;;35.30;99.90;;;;;;5077094;28;20439;-87
2023/05/05 11:18:06;;;;;;;4.97;2.80;;;34.80;99.90;;;;;;5057502;28;20475;-83
2023/05/05 11:21:06;;;;;;;5.87;3.40;;;34.20;99.90;;;;;;5061122;28;20451;-84
2023/05/05 11:23:33;;;;;;;4.43;3.27;;;33.60;99.90;;;;;;5056235;28;20927;-84
2023/05/05 11:26:00;;;;;;;6.40;3.10;;;32.70;99.90;;;;;;5054898;28;20494;-83
2023/05/05 11:28:29;;;;;;;4.67;3.57;;;32.90;99.90;;;;;;5067450;28;20451;-83
2023/05/05 11:31:18;;;;;;;4.53;3.47;;;33.30;99.90;;;;;;5075763;28;20478;-85
2023/05/05 11:33:47;;;;;;;4.13;3.20;;;31.90;99.90;;;;;;5062764;28;20880;-82
2023/05/05 11:36:16;;;;;;;4.97;3.43;;;31.50;99.90;;;;;;5072274;28;20457;-82
2023/05/05 11:39:07;;;;;;;3.40;2.60;;;30.50;99.90;;;;;;5059821;28;20539;-82
2023/05/05 11:42:19;;;;;;;4.10;3.60;;;29.50;99.90;;;;;;5057935;28;20439;-82
2023/05/05 11:44:46;;;;;;;6.47;3.33;;;28.70;99.90;;;;;;5072882;28;20484;-82
2023/05/05 11:47:29;;;;;;;4.13;3.67;;;28.10;99.90;;;;;;5075971;28;20448;-80
2023/05/05 11:49:58;;;;;;;4.60;3.70;;;27.70;99.90;;;;;;5089643;28;20419;-81
2023/05/05 11:52:27;;;;;;;5.20;3.80;;;27.10;99.90;;;;;;5093922;28;20463;-79
2023/05/05 11:54:59;;;;;;;3.77;2.90;;;26.40;99.90;;;;;;5064397;28;20443;-82
2023/05/05 11:57:28;;;;;;;5.83;3.20;;;26.10;99.90;;;;;;5061064;28;20519;-83
2023/05/05 11:59:57;;;;;;;4.07;3.13;;;25.50;99.90;;;;;;5061334;28;20456;-85
2023/05/05 12:02:26;;;;;;;4.00;2.93;;;25.00;99.90;;;;;;5059829;28;20482;-81
2023/05/05 12:04:54;;;;;;;3.97;3.10;;;24.60;99.90;;;;;;5038909;28;20568;-82
2023/05/05 12:07:24;;;;;;;4.20;2.97;;;24.20;99.90;;;;;;5043204;28;20479;-84
2023/05/05 12:09:52;;;;;;;5.20;3.43;;;23.90;99.90;;;;;;5062132;28;20474;-84
2023/05/05 12:12:19;;;;;;;5.00;3.17;;;23.80;99.90;;;;;;5061730;28;20500;-84
2023/05/05 12:14:49;;;;;;;5.27;4.20;;;23.70;99.90;;;;;;5079631;28;20951;-84
2023/05/05 12:17:23;;;;;;;3.33;3.03;;;23.70;99.90;;;;;;5077353;28;20461;-85
2023/05/05 12:19:52;;;;;;;7.00;3.40;;;23.50;99.90;;;;;;5079406;28;20459;-82
2023/05/05 12:22:22;;;;;;;5.13;2.60;;;23.00;99.90;;;;;;5081356;28;20484;-86
2023/05/05 12:24:56;;;;;;;4.93;3.37;;;22.70;99.90;;;;;;5063510;28;21085;-84
2023/05/05 12:27:25;;;;;;;6.30;3.73;;;22.00;99.90;;;;;;5065205;28;20458;-81
2023/05/05 12:29:53;;;;;;;8.43;5.50;;;21.20;99.90;;;;;;5071415;28;20455;-83
2023/05/05 12:32:22;;;;;;;5.63;4.30;;;20.60;1.00;;;;;;5074725;28;20464;-84
2023/05/05 12:34:56;;;;;;;6.67;4.00;;;20.10;99.90;;;;;;5074056;28;20439;-82
2023/05/05 12:37:26;;;;;;;5.80;3.20;;;19.70;27.90;;;;;;5057003;28;20458;-85
2023/05/05 12:39:53;;;;;;;6.50;4.00;;;19.40;99.90;;;;;;5064458;28;20452;-85
2023/05/05 12:42:20;;;;;;;8.73;4.70;;;19.10;99.90;;;;;;5050742;28;20480;-83
2023/05/05 12:44:48;;;;;;;4.93;4.00;;;18.70;29.40;;;;;;5052478;28;20463;-85
2023/05/05 12:47:29;;;;;;;4.23;3.83;;;18.60;99.90;;;;;;5053423;28;20745;-82
2023/05/05 12:49:58;;;;;;;4.70;2.87;;;18.20;1.00;;;;;;5059956;28;20457;-83
2023/05/05 12:52:43;;;;;;;4.33;3.30;;;18.00;99.90;;;;;;5062018;28;20504;-82
2023/05/05 12:55:11;;;;;;;5.90;4.33;;;18.00;99.90;;;;;;5060255;28;20455;-83
2023/05/05 12:57:39;;;;;;;3.20;2.70;;;17.90;1.00;;;;;;5060576;28;20527;-84